Time;durP1;ratioP1;P1;durP2;ratioP2;P2;SDS_P1;SDS_P2;PMS_P1;PMS_P2;Temp;Humidity;BMP_temperature;BMP_pressure;BME280_temperature;BME280_humidity;BME280_pressure;Samples;Min_cycle;Max_cycle;Signal;HPM_P1;HPM_P2
2022/07/30 00:00:39;;;;;;;7.42;2.20;;;;;;;17.70;67.81;100352.80;1678811;85;21221;-80
2022/07/30 00:03:47;;;;;;;9.45;2.02;;;;;;;17.67;67.79;100348.23;1679406;85;21185;-80
2022/07/30 00:06:52;;;;;;;5.87;1.92;;;;;;;17.67;67.72;100345.47;1678058;85;21204;-80
2022/07/30 00:09:52;;;;;;;10.20;2.08;;;;;;;17.66;67.66;100346.55;1679508;85;21216;-80
2022/07/30 00:12:45;;;;;;;9.03;2.40;;;;;;;17.66;67.60;100352.08;1679089;85;21204;-80
2022/07/30 00:15:32;;;;;;;11.65;2.90;;;;;;;17.67;67.51;100351.00;1678132;85;21770;-79
2022/07/30 00:18:24;;;;;;;6.65;1.92;;;;;;;17.66;67.47;100346.55;1679284;85;21180;-80
2022/07/30 00:21:35;;;;;;;6.10;2.05;;;;;;;17.65;67.48;100347.62;1678992;85;21212;-80
2022/07/30 00:24:41;;;;;;;;;;;;;;;17.63;67.48;100347.29;1681776;85;21216;-80
2022/07/30 00:27:47;;;;;;;15.15;1.92;;;;;;;17.62;67.50;100340.61;1679366;85;20653;-80
2022/07/30 00:30:53;;;;;;;5.85;2.20;;;;;;;17.59;67.57;100349.34;1678630;85;21801;-80
2022/07/30 00:33:59;;;;;;;6.92;2.22;;;;;;;17.55;67.67;100341.16;1679280;85;21718;-80
2022/07/30 00:37:06;;;;;;;10.03;1.87;;;;;;;17.53;67.76;100341.94;1678143;85;21228;-80
2022/07/30 00:40:14;;;;;;;4.78;1.45;;;;;;;17.50;67.81;100342.36;1678203;85;21256;-80
2022/07/30 00:43:23;;;;;;;6.78;1.90;;;;;;;17.47;67.88;100340.91;1679314;85;21735;-80
2022/07/30 00:46:29;;;;;;;5.15;2.25;;;;;;;17.45;67.90;100335.27;1677835;85;21744;-80
2022/07/30 00:49:35;;;;;;;11.25;2.35;;;;;;;17.42;67.94;100332.97;1679389;85;21150;-80
2022/07/30 00:52:43;;;;;;;6.00;2.20;;;;;;;17.38;67.89;100326.48;1677964;85;21225;-80
2022/07/30 00:55:50;;;;;;;9.03;2.15;;;;;;;17.33;68.04;100326.30;1678641;85;21244;-80
2022/07/30 00:58:57;;;;;;;10.32;2.17;;;;;;;17.29;68.13;100321.43;1678042;85;21233;-80
2022/07/30 01:02:03;;;;;;;4.30;1.98;;;;;;;17.28;68.24;100316.98;1678040;85;21214;-81
2022/07/30 01:05:09;;;;;;;6.95;2.10;;;;;;;17.27;68.33;100315.28;1678054;85;21240;-81
2022/07/30 01:08:16;;;;;;;7.95;2.42;;;;;;;17.27;68.35;100315.28;1679291;85;21177;-81
2022/07/30 01:11:22;;;;;;;5.15;2.22;;;;;;;17.27;68.38;100315.28;1678345;85;21216;-81
2022/07/30 01:14:27;;;;;;;4.33;2.08;;;;;;;17.25;68.43;100313.26;1679317;85;21998;-81
2022/07/30 01:17:26;;;;;;;8.48;2.35;;;;;;;17.26;68.49;100321.86;1679319;85;21209;-81
2022/07/30 01:20:41;;;;;;;4.72;1.90;;;;;;;17.26;68.54;100317.71;1678843;85;21216;-81
2022/07/30 01:23:50;;;;;;;6.85;2.52;;;;;;;17.24;68.54;100318.48;1683785;83;21196;-80
2022/07/30 01:26:57;;;;;;;8.68;2.65;;;;;;;17.22;68.59;100320.09;1695159;84;21216;-80
2022/07/30 01:30:06;;;;;;;3.77;2.00;;;;;;;17.20;68.57;100316.68;1695348;84;21256;-80
2022/07/30 01:33:12;;;;;;;7.87;2.20;;;;;;;17.19;68.61;100323.82;1695112;84;21157;-80
2022/07/30 01:36:22;;;;;;;9.05;2.47;;;;;;;17.19;68.53;100318.29;1695150;84;22051;-80
2022/07/30 01:39:29;;;;;;;9.48;2.45;;;;;;;17.19;68.49;100322.44;1695205;84;21173;-80
2022/07/30 01:42:35;;;;;;;12.40;2.22;;;;;;;17.17;68.53;100322.64;1712326;83;21263;-81
2022/07/30 01:45:40;;;;;;;4.37;2.00;;;;;;;17.15;68.49;100322.02;1695164;84;21212;-80
2022/07/30 01:48:47;;;;;;;12.55;2.52;;;;;;;17.13;68.41;100323.33;1695009;84;21192;-80
2022/07/30 01:51:54;;;;;;;4.15;2.08;;;;;;;17.08;68.34;100325.36;1695065;84;21248;-80
2022/07/30 01:54:58;;;;;;;8.40;2.37;;;;;;;17.07;68.32;100325.86;1695300;84;21259;-81
2022/07/30 01:58:06;;;;;;;9.78;2.12;;;;;;;17.06;68.37;100324.17;1695202;84;21204;-80
2022/07/30 02:01:14;;;;;;;7.83;2.30;;;;;;;17.04;68.45;100324.09;1695190;84;21272;-81
2022/07/30 02:04:26;;;;;;;8.13;2.27;;;;;;;17.01;68.43;100320.38;1695082;84;21198;-80
2022/07/30 02:07:42;;;;;;;8.70;2.05;;;;;;;17.01;68.45;100323.14;1693857;84;21271;-80
2022/07/30 02:10:40;;;;;;;5.85;2.20;;;;;;;16.98;68.52;100320.27;1694921;84;21235;-81
2022/07/30 02:13:54;;;;;;;9.30;2.47;;;;;;;16.98;68.52;100324.41;1694849;84;21183;-81
2022/07/30 02:17:00;;;;;;;12.95;2.92;;;;;;;16.97;68.52;100328.24;1692831;84;21203;-81
2022/07/30 02:19:56;;;;;;;6.80;2.67;;;;;;;17.00;68.50;100331.13;1693749;84;21227;-80
2022/07/30 02:23:11;;;;;;;8.45;2.58;;;;;;;17.00;68.47;100323.67;1693837;84;21195;-80
2022/07/30 02:26:19;;;;;;;7.08;2.37;;;;;;;17.00;68.46;100322.83;1689172;84;21212;-80
2022/07/30 02:29:24;;;;;;;3.87;2.05;;;;;;;17.02;68.42;100325.67;1688065;85;22103;-80
2022/07/30 02:32:31;;;;;;;11.48;2.12;;;;;;;17.06;68.46;100333.00;1689389;85;21196;-81
2022/07/30 02:35:39;;;;;;;12.25;2.83;;;;;;;17.19;68.41;100336.26;1688768;85;21227;-80
2022/07/30 02:38:46;;;;;;;9.35;2.15;;;;;;;17.43;67.99;100343.80;1673129;85;21817;-81
2022/07/30 02:41:52;;;;;;;8.03;2.08;;;;;;;17.73;67.27;100344.58;1688069;85;21223;-81
2022/07/30 02:44:59;;;;;;;8.00;2.30;;;;;;;18.08;66.28;100341.72;1688139;85;21220;-81
2022/07/30 02:48:10;;;;;;;9.73;2.35;;;;;;;18.45;65.04;100343.22;1688176;85;21267;-81
2022/07/30 02:51:17;;;;;;;7.12;2.10;;;;;;;18.82;63.67;100337.23;1688963;85;21220;-80
2022/07/30 02:54:24;;;;;;;8.70;2.08;;;;;;;19.18;61.97;100336.06;1688166;85;21216;-81
2022/07/30 02:57:30;;;;;;;9.50;1.85;;;;;;;19.47;61.22;100334.41;1688836;85;21196;-81
2022/07/30 03:00:38;;;;;;;10.93;2.00;;;;;;;19.76;60.02;100328.58;1688978;85;21223;-80
2022/07/30 03:03:49;;;;;;;7.80;2.00;;;;;;;20.01;59.30;100332.05;1689330;85;21212;-80
2022/07/30 03:06:55;;;;;;;7.90;1.90;;;;;;;20.28;58.34;100332.98;1687980;85;21754;-81
2022/07/30 03:10:02;;;;;;;3.33;1.87;;;;;;;20.50;57.14;100334.67;1689428;85;21232;-81
2022/07/30 03:13:13;;;;;;;7.58;2.00;;;;;;;20.62;56.30;100334.98;1688245;84;21216;-81
2022/07/30 03:16:20;;;;;;;9.78;2.17;;;;;;;20.74;55.60;100331.34;1688507;85;21216;-79
2022/07/30 03:19:29;;;;;;;11.15;2.00;;;;;;;20.84;55.17;100331.06;1689479;85;21177;-81
2022/07/30 03:22:35;;;;;;;4.55;1.82;;;;;;;21.01;54.70;100335.31;1689360;85;21165;-81
2022/07/30 03:25:42;;;;;;;8.13;1.75;;;;;;;21.27;53.98;100330.31;1690196;84;21593;-81
2022/07/30 03:28:49;;;;;;;11.38;2.00;;;;;;;21.54;52.90;100336.16;1688805;85;21236;-81
2022/07/30 03:31:55;;;;;;;9.53;2.10;;;;;;;21.74;52.21;100342.66;1688004;85;21224;-81
2022/07/30 03:35:02;;;;;;;5.80;1.95;;;;;;;21.92;51.51;100342.45;1688097;85;21204;-79
2022/07/30 03:38:11;;;;;;;7.70;1.57;;;;;;;22.05;50.60;100343.53;1711950;83;21232;-79
2022/07/30 03:41:17;;;;;;;8.73;1.72;;;;;;;22.10;50.06;100346.41;1688138;85;21231;-79
2022/07/30 03:44:26;;;;;;;6.75;1.75;;;;;;;22.05;50.02;100351.89;1688819;85;21272;-80
2022/07/30 03:47:31;;;;;;;10.35;2.35;;;;;;;22.00;50.16;100353.19;1689078;85;21212;-80
2022/07/30 03:50:37;;;;;;;12.05;2.10;;;;;;;21.96;50.40;100364.53;1688820;85;21805;-80
2022/07/30 03:53:43;;;;;;;5.05;2.08;;;;;;;21.91;50.70;100354.14;1688248;85;21165;-80
2022/07/30 03:57:01;;;;;;;5.62;2.25;;;;;;;21.93;50.83;100352.52;1689572;85;21185;-81
2022/07/30 04:00:08;;;;;;;5.45;1.87;;;;;;;21.90;50.90;100353.84;1689156;85;21204;-80
2022/07/30 04:03:14;;;;;;;5.00;1.90;;;;;;;21.88;51.19;100353.82;1689428;85;21184;-81
2022/07/30 04:06:24;;;;;;;9.08;1.82;;;;;;;21.87;51.57;100352.11;1688532;85;21852;-81
2022/07/30 04:09:31;;;;;;;6.33;1.87;;;;;;;21.88;51.85;100353.82;1687884;85;21200;-80
2022/07/30 04:12:46;;;;;;;11.12;2.12;;;;;;;21.94;51.62;100348.08;1698554;83;21240;-80
2022/07/30 04:16:06;;;;;;;6.75;1.72;;;;;;;21.99;51.79;100351.51;1688068;84;21236;-81
2022/07/30 04:19:19;;;;;;;10.18;1.82;;;;;;;22.06;51.43;100347.16;1687720;85;21236;-80
2022/07/30 04:22:26;;;;;;;7.10;1.80;;;;;;;22.15;50.55;100351.25;1689819;85;21168;-80
2022/07/30 04:25:31;;;;;;;7.35;2.00;;;;;;;22.24;50.16;100352.53;1689021;85;21257;-80
2022/07/30 04:28:37;;;;;;;4.37;2.00;;;;;;;22.23;50.38;100353.63;1688886;83;21923;-81
2022/07/30 04:31:43;;;;;;;5.97;1.70;;;;;;;22.31;50.26;100349.05;1688213;85;21231;-81
2022/07/30 04:35:07;;;;;;;4.92;1.67;;;;;;;22.45;49.89;100350.40;1688244;85;21252;-80
2022/07/30 04:38:22;;;;;;;9.05;2.15;;;;;;;22.58;49.31;100351.14;1707532;83;21196;-81
2022/07/30 04:41:27;;;;;;;7.00;1.82;;;;;;;22.70;48.85;100350.50;1688321;85;21251;-80
2022/07/30 04:44:40;;;;;;;6.53;2.02;;;;;;;22.79;48.46;100348.13;1689441;85;21297;-81
2022/07/30 04:47:48;;;;;;;6.80;1.60;;;;;;;22.87;48.28;100351.88;1689144;85;21233;-81
2022/07/30 04:51:18;;;;;;;9.75;1.85;;;;;;;22.89;48.17;100344.12;1688627;85;21284;-80
2022/07/30 04:54:25;;;;;;;7.83;2.10;;;;;;;23.01;48.40;100349.58;1688802;85;21164;-81
2022/07/30 04:57:30;;;;;;;7.95;2.10;;;;;;;23.12;48.25;100346.69;1689263;85;21169;-81
2022/07/30 05:00:36;;;;;;;7.90;1.60;;;;;;;23.28;47.86;100349.67;1688588;85;21781;-81
2022/07/30 05:03:44;;;;;;;3.55;1.50;;;;;;;23.46;47.02;100354.92;1689343;85;21232;-81
2022/07/30 05:06:50;;;;;;;3.30;1.37;;;;;;;23.57;47.01;100349.78;1689575;85;21224;-82
2022/07/30 05:09:56;;;;;;;7.03;1.87;;;;;;;23.69;46.10;100353.84;1688189;85;21235;-81
2022/07/30 05:13:03;;;;;;;6.12;1.60;;;;;;;23.69;46.04;100365.84;1689625;85;21184;-81
2022/07/30 05:16:11;;;;;;;2.50;1.30;;;;;;;23.81;46.52;100368.51;1689244;85;21714;-82
2022/07/30 05:19:19;;;;;;;7.17;1.60;;;;;;;23.95;45.38;100370.34;1688146;85;21228;-81
2022/07/30 05:22:28;;;;;;;2.98;1.27;;;;;;;24.03;45.27;100366.20;1689430;85;21225;-81
2022/07/30 05:25:35;;;;;;;7.53;1.30;;;;;;;24.08;45.52;100368.49;1689043;85;21804;-81
2022/07/30 05:28:43;;;;;;;3.85;1.77;;;;;;;24.13;45.07;100371.33;1688796;84;21216;-81
2022/07/30 05:31:52;;;;;;;2.77;1.17;;;;;;;24.21;45.52;100364.43;1690881;83;21193;-82
2022/07/30 05:35:00;;;;;;;10.40;1.90;;;;;;;24.34;44.56;100365.39;1689240;85;21260;-81
2022/07/30 05:38:07;;;;;;;3.22;1.60;;;;;;;24.36;44.29;100373.50;1689463;85;21189;-82
2022/07/30 05:41:23;;;;;;;5.78;1.45;;;;;;;24.34;44.23;100365.39;1689883;83;21228;-82
2022/07/30 05:44:33;;;;;;;5.00;1.45;;;;;;;24.38;44.27;100358.76;1689369;85;21189;-82
2022/07/30 05:47:39;;;;;;;9.15;1.45;;;;;;;24.48;44.43;100360.23;1689451;85;21820;-81
2022/07/30 05:50:45;;;;;;;2.80;1.25;;;;;;;24.58;44.05;100354.72;1688254;85;21180;-81
2022/07/30 05:53:53;;;;;;;5.45;1.60;;;;;;;24.60;43.23;100348.29;1689437;85;21180;-82
2022/07/30 05:57:16;;;;;;;2.83;1.30;;;;;;;24.65;43.37;100348.33;1689405;85;21196;-81
2022/07/30 06:00:21;;;;;;;2.95;1.12;;;;;;;24.74;42.86;100348.67;1688204;85;21777;-81
2022/07/30 06:03:27;;;;;;;9.63;1.32;;;;;;;24.81;43.20;100352.09;1689383;85;21168;-82
2022/07/30 06:06:51;;;;;;;7.80;1.55;;;;;;;24.92;42.95;100350.19;1688119;84;21224;-82
2022/07/30 06:09:59;;;;;;;4.08;1.52;;;;;;;24.99;42.09;100350.81;1687855;85;21244;-81
2022/07/30 06:13:05;;;;;;;13.55;1.77;;;;;;;25.02;42.31;100347.45;1689243;85;21176;-81
2022/07/30 06:16:10;;;;;;;4.72;1.02;;;;;;;25.11;42.37;100340.26;1688544;85;21755;-82
2022/07/30 06:19:19;;;;;;;8.88;1.47;;;;;;;25.26;41.64;100333.89;1689251;85;21181;-82
2022/07/30 06:22:25;;;;;;;6.78;1.22;;;;;;;25.33;42.09;100331.70;1681487;84;21754;-79
2022/07/30 06:25:34;;;;;;;2.25;1.10;;;;;;;25.45;42.28;100321.65;1661975;84;21185;-81
2022/07/30 06:28:40;;;;;;;3.45;1.20;;;;;;;25.55;40.87;100331.51;1636401;86;21208;-82
2022/07/30 06:31:50;;;;;;;9.15;1.62;;;;;;;25.62;40.43;100329.84;1660131;86;21184;-83
2022/07/30 06:34:56;;;;;;;5.90;1.07;;;;;;;25.77;40.07;100333.27;1656768;86;21231;-83
2022/07/30 06:38:03;;;;;;;4.00;0.98;;;;;;;25.95;39.15;100327.14;1661365;86;21200;-82
2022/07/30 06:41:14;;;;;;;3.95;0.93;;;;;;;26.13;38.18;100332.77;1656091;86;21181;-82
2022/07/30 06:44:21;;;;;;;4.58;0.72;;;;;;;26.32;37.54;100330.27;1656491;86;21695;-82
2022/07/30 06:47:48;;;;;;;2.15;0.82;;;;;;;26.50;36.73;100326.92;1651718;87;21248;-81
2022/07/30 06:50:55;;;;;;;2.77;0.98;;;;;;;26.62;35.70;100323.81;1651664;87;21244;-81
2022/07/30 06:54:03;;;;;;;14.43;1.00;;;;;;;26.64;35.85;100325.23;1652490;87;21781;-82
2022/07/30 06:57:25;;;;;;;2.50;0.93;;;;;;;26.68;35.49;100329.16;1652273;87;21247;-80
2022/07/30 07:00:34;;;;;;;10.70;1.22;;;;;;;26.72;36.08;100312.58;1652022;87;21236;-81
2022/07/30 07:03:42;;;;;;;4.87;1.10;;;;;;;26.76;35.16;100305.27;1652459;87;21220;-81
2022/07/30 07:06:49;;;;;;;4.53;1.12;;;;;;;26.81;35.67;100314.24;1651516;87;21279;-81
2022/07/30 07:09:57;;;;;;;2.72;1.12;;;;;;;26.86;34.91;100300.20;1651229;87;21245;-81
2022/07/30 07:13:09;;;;;;;2.33;0.75;;;;;;;26.82;35.65;100308.37;1651356;87;21718;-81
2022/07/30 07:16:15;;;;;;;6.30;1.62;;;;;;;26.84;35.35;100312.28;1651274;87;21270;-81
2022/07/30 07:19:20;;;;;;;2.83;0.98;;;;;;;26.79;35.81;100315.10;1651481;87;21745;-81
2022/07/30 07:22:29;;;;;;;3.37;1.00;;;;;;;26.74;35.77;100309.77;1651000;87;21264;-81
2022/07/30 07:25:34;;;;;;;8.78;1.90;;;;;;;26.74;35.08;100317.36;1654182;86;21219;-82
2022/07/30 07:28:41;;;;;;;3.72;1.07;;;;;;;26.79;35.03;100327.73;1660301;86;21193;-81
2022/07/30 07:31:47;;;;;;;5.03;1.00;;;;;;;26.82;34.61;100314.52;1648718;86;21279;-80
2022/07/30 07:34:56;;;;;;;3.25;1.17;;;;;;;26.83;34.07;100314.82;1688805;85;21235;-80
2022/07/30 07:38:04;;;;;;;10.18;1.22;;;;;;;26.85;34.90;100312.55;1687407;85;21796;-81
2022/07/30 07:41:10;;;;;;;8.13;1.12;;;;;;;26.94;34.41;100315.05;1687750;85;21263;-82
2022/07/30 07:44:16;;;;;;;7.62;1.02;;;;;;;27.12;34.14;100318.69;1688933;85;21180;-81
2022/07/30 07:47:21;;;;;;;3.17;0.90;;;;;;;27.38;33.65;100310.98;1688790;85;21192;-82
2022/07/30 07:50:30;;;;;;;3.27;0.90;;;;;;;27.57;33.47;100301.37;1688543;85;21224;-81
2022/07/30 07:53:39;;;;;;;6.25;0.90;;;;;;;27.76;33.83;100298.76;1688847;85;21184;-82
2022/07/30 07:56:47;;;;;;;6.35;1.10;;;;;;;28.00;32.49;100304.49;1683740;85;21184;-82
2022/07/30 07:59:58;;;;;;;4.30;0.90;;;;;;;28.08;32.30;100303.84;1654449;86;21216;-81
2022/07/30 08:03:07;;;;;;;5.30;1.10;;;;;;;28.16;32.02;100311.66;1682790;85;21793;-82
2022/07/30 08:06:13;;;;;;;1.82;0.82;;;;;;;28.09;31.48;100306.09;1653576;86;21213;-81
2022/07/30 08:09:37;;;;;;;3.17;1.00;;;;;;;27.97;31.25;100300.84;1651915;86;21229;-80
2022/07/30 08:12:47;;;;;;;5.08;1.70;;;;;;;27.80;31.96;100301.80;1646730;85;21177;-79
2022/07/30 08:15:58;;;;;;;4.05;1.10;;;;;;;27.79;31.70;100297.31;1667125;85;21245;-80
2022/07/30 08:19:22;;;;;;;8.53;1.27;;;;;;;27.72;31.42;100299.90;1644224;86;21269;-80
2022/07/30 08:22:33;;;;;;;1.77;1.00;;;;;;;27.67;31.19;100297.09;1642397;86;21777;-81
2022/07/30 08:25:38;;;;;;;1.82;1.05;;;;;;;27.64;31.50;100293.45;1657808;85;21180;-82
2022/07/30 08:28:45;;;;;;;2.05;1.00;;;;;;;27.58;31.98;100289.00;1645051;86;21754;-82
2022/07/30 08:31:53;;;;;;;1.57;0.90;;;;;;;27.53;31.62;100296.62;1664946;85;21180;-81
2022/07/30 08:35:00;;;;;;;7.60;0.90;;;;;;;27.56;31.45;100286.19;1657691;86;21738;-80
2022/07/30 08:38:06;;;;;;;1.77;0.80;;;;;;;27.65;31.14;100294.28;1660631;86;21172;-80
2022/07/30 08:41:12;;;;;;;3.00;1.20;;;;;;;27.73;30.64;100281.91;1667916;84;21223;-80
2022/07/30 08:44:18;;;;;;;29.15;1.40;;;;;;;27.66;29.67;100282.73;1650898;87;21262;-80
2022/07/30 08:47:24;;;;;;;3.05;0.88;;;;;;;27.59;30.38;100278.03;1663266;86;21197;-80
2022/07/30 08:50:35;;;;;;;2.62;1.30;;;;;;;27.58;30.28;100269.90;1634036;86;21256;-80
2022/07/30 08:53:56;;;;;;;2.00;0.90;;;;;;;27.60;29.85;100262.00;1651270;87;21191;-80
2022/07/30 08:57:02;;;;;;;3.80;1.20;;;;;;;27.65;30.29;100267.02;1663418;86;21228;-81
2022/07/30 09:00:07;;;;;;;10.10;1.10;;;;;;;27.71;29.95;100270.63;1650950;87;21262;-81
2022/07/30 09:03:13;;;;;;;2.22;1.27;;;;;;;27.79;30.33;100256.00;1662131;86;21220;-80
2022/07/30 09:06:22;;;;;;;8.78;1.10;;;;;;;27.88;29.95;100273.09;1649701;86;21286;-82
2022/07/30 09:09:27;;;;;;;3.70;0.90;;;;;;;27.95;30.21;100273.61;1663229;86;21204;-79
2022/07/30 09:12:50;;;;;;;23.35;1.95;;;;;;;28.08;30.44;100249.02;1634042;88;21883;-79
2022/07/30 09:15:57;;;;;;;35.60;1.98;;;;;;;28.24;30.00;100260.42;1650304;87;21215;-80
2022/07/30 09:18:52;;;;;;;4.62;1.40;;;;;;;28.38;29.23;100260.61;1663002;86;21185;-81
2022/07/30 09:22:05;;;;;;;8.50;1.32;;;;;;;28.45;28.86;100260.25;1633419;88;21220;-82
2022/07/30 09:25:17;;;;;;;2.60;1.17;;;;;;;28.47;29.28;100260.81;1630962;87;21239;-81
2022/07/30 09:28:40;;;;;;;6.12;1.00;;;;;;;28.54;29.58;100250.03;1662467;86;21188;-81
2022/07/30 09:32:15;;;;;;;14.55;1.35;;;;;;;28.63;29.39;100245.44;1633481;86;21236;-81
2022/07/30 09:35:30;;;;;;;10.03;1.17;;;;;;;28.58;29.02;100267.17;1613557;88;21236;-81
2022/07/30 09:38:36;;;;;;;5.85;1.30;;;;;;;28.45;29.28;100246.19;1663238;85;21175;-81
2022/07/30 09:41:50;;;;;;;2.98;1.32;;;;;;;28.47;29.66;100248.99;1646379;87;21751;-82
2022/07/30 09:44:57;;;;;;;1.98;1.12;;;;;;;28.48;29.49;100268.95;1672303;85;21239;-82
2022/07/30 09:48:04;;;;;;;3.02;1.10;;;;;;;28.47;29.34;100252.38;1673618;86;21228;-80
2022/07/30 09:51:11;;;;;;;6.40;1.75;;;;;;;28.49;30.30;100279.62;1673210;86;21190;-82
2022/07/30 09:54:18;;;;;;;5.03;1.37;;;;;;;28.56;29.22;100257.63;1672484;86;21193;-81
2022/07/30 09:57:19;;;;;;;7.05;1.30;;;;;;;28.59;29.16;100247.16;1673346;86;21186;-82
2022/07/30 10:00:31;;;;;;;5.12;1.20;;;;;;;28.61;29.44;100260.39;1672225;85;21241;-82
2022/07/30 10:03:56;;;;;;;4.10;1.10;;;;;;;28.64;29.42;100251.33;1672081;85;21185;-80
2022/07/30 10:07:27;;;;;;;18.10;1.50;;;;;;;28.67;28.78;100236.67;1673486;86;21229;-81
2022/07/30 10:10:38;;;;;;;5.55;1.30;;;;;;;28.64;29.22;100242.05;1650665;86;21261;-81
2022/07/30 10:13:47;;;;;;;6.13;1.20;;;;;;;28.56;29.25;100232.31;1672617;85;21233;-81
2022/07/30 10:16:53;;;;;;;4.58;1.35;;;;;;;28.48;29.41;100239.98;1672119;85;21533;-82
2022/07/30 10:20:01;;;;;;;4.60;1.22;;;;;;;28.46;29.20;100227.59;1671887;86;21213;-81
2022/07/30 10:23:26;;;;;;;13.48;1.87;;;;;;;28.47;29.28;100227.06;1673418;85;21197;-81
2022/07/30 10:26:41;;;;;;;10.03;1.60;;;;;;;28.51;29.14;100232.33;1677213;85;21244;-81
2022/07/30 10:29:48;;;;;;;5.78;1.22;;;;;;;28.53;29.55;100241.33;1644960;85;21213;-82
2022/07/30 10:32:54;;;;;;;13.75;1.45;;;;;;;28.56;29.19;100240.75;1672433;85;21833;-81
2022/07/30 10:36:01;;;;;;;3.42;1.20;;;;;;;28.55;28.64;100233.42;1671493;85;21734;-80
2022/07/30 10:39:07;;;;;;;2.98;1.00;;;;;;;28.56;28.58;100244.97;1672149;86;21182;-80
2022/07/30 10:42:46;;;;;;;11.15;1.72;;;;;;;28.52;28.90;100241.07;1672400;86;21222;-81
2022/07/30 10:46:10;;;;;;;;;;;;;;;28.50;29.35;100236.29;1673305;86;21244;-81
2022/07/30 10:49:24;;;;;;;4.10;1.02;;;;;;;28.58;29.49;100241.84;1672225;86;20198;-82
2022/07/30 10:52:54;;;;;;;11.63;1.40;;;;;;;28.66;29.04;100237.81;1672236;86;21229;-80
2022/07/30 10:56:20;;;;;;;4.58;1.20;;;;;;;28.80;29.64;100229.50;1672161;86;21221;-80
2022/07/30 10:59:27;;;;;;;2.30;1.12;;;;;;;28.92;28.05;100228.49;1672370;86;21683;-80
2022/07/30 11:02:37;;;;;;;2.02;1.20;;;;;;;28.97;28.60;100230.44;1672412;86;21169;-80
2022/07/30 11:05:44;;;;;;;2.95;1.30;;;;;;;29.02;28.24;100238.81;1671983;86;21205;-81
2022/07/30 11:08:50;;;;;;;8.28;1.20;;;;;;;29.00;28.51;100246.16;1672180;86;21190;-79
2022/07/30 11:11:57;;;;;;;8.55;1.42;;;;;;;28.96;28.60;100224.55;1670816;86;21232;-80
2022/07/30 11:15:05;;;;;;;4.25;1.12;;;;;;;28.96;28.60;100224.55;1670971;85;21197;-80
2022/07/30 11:18:16;;;;;;;2.98;1.25;;;;;;;28.94;28.80;100214.97;1672263;86;21162;-81
2022/07/30 11:21:26;;;;;;;5.90;1.47;;;;;;;28.97;28.83;100213.55;1672242;86;21260;-81
2022/07/30 11:24:50;;;;;;;3.08;1.15;;;;;;;29.06;28.46;100217.37;1671003;85;21189;-80
2022/07/30 11:27:59;;;;;;;3.35;1.20;;;;;;;29.03;28.20;100213.20;1672326;86;21166;-81
2022/07/30 11:31:07;;;;;;;4.58;1.10;;;;;;;29.00;27.84;100222.23;1672162;86;21809;-81
2022/07/30 11:34:31;;;;;;;6.50;1.47;;;;;;;28.97;27.72;100225.64;1672178;85;21221;-81
2022/07/30 11:37:36;;;;;;;7.80;1.37;;;;;;;28.98;27.89;100227.88;1671282;86;21233;-81
2022/07/30 11:40:58;;;;;;;4.55;1.30;;;;;;;28.94;27.64;100214.97;1672271;86;21228;-81
2022/07/30 11:44:33;;;;;;;6.80;1.50;;;;;;;28.99;28.02;100217.75;1671999;86;21774;-82
2022/07/30 11:47:40;;;;;;;5.35;1.22;;;;;;;29.13;28.11;100221.24;1671030;86;21707;-81
2022/07/30 11:50:46;;;;;;;4.30;1.40;;;;;;;29.22;28.18;100211.81;1672287;86;21273;-82
2022/07/30 11:53:52;;;;;;;3.52;1.27;;;;;;;29.25;27.23;100220.21;1672083;86;21209;-82
2022/07/30 11:57:01;;;;;;;4.72;1.20;;;;;;;29.21;26.93;100222.78;1659086;86;21229;-82
2022/07/30 12:00:07;;;;;;;9.20;1.50;;;;;;;29.21;26.93;100222.78;1672312;86;21233;-82
2022/07/30 12:03:18;;;;;;;3.87;1.42;;;;;;;29.19;27.49;100227.06;1672245;86;21182;-82
2022/07/30 12:06:24;;;;;;;10.93;1.70;;;;;;;29.24;27.13;100217.97;1671350;86;21197;-81
2022/07/30 12:09:33;;;;;;;3.50;1.42;;;;;;;29.22;26.50;100232.10;1672237;86;21189;-81
2022/07/30 12:12:40;;;;;;;6.37;1.30;;;;;;;29.14;26.13;100220.93;1671100;86;21257;-81
2022/07/30 12:15:52;;;;;;;8.10;1.10;;;;;;;29.14;26.49;100218.11;1671156;86;21252;-81
2022/07/30 12:18:56;;;;;;;4.65;1.02;;;;;;;29.16;26.50;100214.41;1672167;86;21242;-81
2022/07/30 12:22:06;;;;;;;3.33;1.50;;;;;;;29.18;26.87;100223.41;1672188;86;21214;-81
2022/07/30 12:25:16;;;;;;;3.17;1.05;;;;;;;29.21;27.02;100211.52;1671924;86;21700;-82
2022/07/30 12:28:31;;;;;;;6.15;1.22;;;;;;;29.25;26.87;100218.80;1671172;86;21213;-82
2022/07/30 12:31:38;;;;;;;6.00;1.45;;;;;;;29.19;26.85;100221.44;1670956;86;21838;-81
2022/07/30 12:34:43;;;;;;;2.90;1.30;;;;;;;29.11;27.04;100206.03;1671955;86;21201;-80
2022/07/30 12:37:50;;;;;;;8.38;1.57;;;;;;;29.12;27.36;100211.09;1677847;85;21292;-81
2022/07/30 12:41:08;;;;;;;7.80;1.40;;;;;;;29.18;27.15;100207.92;1677703;85;21220;-81
2022/07/30 12:44:14;;;;;;;4.22;1.45;;;;;;;29.11;26.98;100196.18;1678598;85;21181;-80
2022/07/30 12:47:33;;;;;;;5.62;1.20;;;;;;;29.08;27.09;100200.16;1678412;85;21228;-80
2022/07/30 12:50:41;;;;;;;4.40;1.37;;;;;;;29.08;27.09;100200.16;1677794;85;21228;-80
2022/07/30 12:53:48;;;;;;;3.25;1.17;;;;;;;28.98;27.42;100182.30;1677898;85;21199;-81
2022/07/30 12:57:07;;;;;;;4.12;1.17;;;;;;;28.95;27.29;100189.92;1677064;85;21856;-80
2022/07/30 13:00:16;;;;;;;15.93;1.50;;;;;;;28.87;27.54;100196.76;1678511;85;21208;-80
2022/07/30 13:03:41;;;;;;;3.00;1.40;;;;;;;28.87;27.54;100196.76;1678604;85;21213;-80
2022/07/30 13:06:42;;;;;;;10.78;1.65;;;;;;;28.81;27.99;100173.47;1677338;85;21232;-81
2022/07/30 13:09:47;;;;;;;5.03;1.22;;;;;;;28.81;27.99;100173.47;1677033;85;21726;-80
2022/07/30 13:12:53;;;;;;;3.25;1.50;;;;;;;28.80;27.99;100180.25;1677228;85;21189;-81
2022/07/30 13:16:07;;;;;;;5.42;1.30;;;;;;;28.74;28.13;100180.02;1676755;85;21214;-81
2022/07/30 13:19:08;;;;;;;5.70;1.10;;;;;;;28.66;28.41;100183.52;1677102;85;21765;-81
2022/07/30 13:22:02;;;;;;;3.15;1.32;;;;;;;28.66;28.41;100183.52;1678328;85;21209;-81
2022/07/30 13:25:08;;;;;;;3.35;1.02;;;;;;;28.63;28.43;100166.66;1678355;85;21252;-82
2022/07/30 13:28:15;;;;;;;1.50;1.17;;;;;;;28.61;28.78;100165.30;1677058;85;21245;-81
2022/07/30 13:31:21;;;;;;;7.37;1.42;;;;;;;28.54;28.60;100160.01;1677430;85;21214;-82
2022/07/30 13:34:30;;;;;;;3.30;1.20;;;;;;;28.51;28.77;100149.34;1677866;85;21754;-81
2022/07/30 13:37:35;;;;;;;4.55;1.30;;;;;;;28.46;28.95;100153.05;1686953;83;21220;-82
2022/07/30 13:40:42;;;;;;;5.33;1.30;;;;;;;28.45;28.63;100145.76;1693906;84;21207;-82
2022/07/30 13:43:49;;;;;;;2.87;1.20;;;;;;;28.44;28.34;100141.28;1693056;84;21259;-82
2022/07/30 13:46:55;;;;;;;2.87;1.10;;;;;;;28.48;28.46;100146.58;1693035;84;21224;-82
2022/07/30 13:50:02;;;;;;;3.80;1.10;;;;;;;28.53;28.25;100133.02;1694267;84;21704;-81
2022/07/30 13:53:09;;;;;;;3.25;1.35;;;;;;;28.64;28.30;100143.00;1694287;84;21188;-82
2022/07/30 13:56:16;;;;;;;6.62;1.00;;;;;;;28.66;28.29;100125.27;1693555;84;21219;-81
2022/07/30 13:59:21;;;;;;;3.45;1.10;;;;;;;28.68;28.50;100129.17;1694395;84;21192;-80
2022/07/30 14:02:27;;;;;;;4.30;1.20;;;;;;;28.66;28.65;100126.67;1694412;84;21200;-82
2022/07/30 14:05:35;;;;;;;5.33;1.50;;;;;;;28.73;28.56;100123.47;1693863;84;21243;-81
2022/07/30 14:08:40;;;;;;;4.55;1.50;;;;;;;28.76;28.50;100129.34;1694229;84;21200;-80
2022/07/30 14:11:48;;;;;;;4.90;1.20;;;;;;;28.75;28.12;100120.64;1693085;84;21231;-81
2022/07/30 14:14:54;;;;;;;6.80;1.20;;;;;;;28.74;27.88;100119.52;1694250;84;21217;-81
2022/07/30 14:18:00;;;;;;;3.22;1.15;;;;;;;28.71;27.84;100118.16;1693006;84;21772;-81
2022/07/30 14:21:07;;;;;;;12.00;1.25;;;;;;;28.68;27.76;100130.58;1693480;84;21220;-81
2022/07/30 14:24:19;;;;;;;4.40;1.10;;;;;;;28.62;27.84;100128.41;1693098;84;21763;-81
2022/07/30 14:27:22;;;;;;;3.60;1.20;;;;;;;28.57;27.97;100118.63;1693344;84;21200;-81
2022/07/30 14:30:29;;;;;;;5.03;1.40;;;;;;;28.48;28.06;100104.95;1693101;84;21216;-81
2022/07/30 14:33:35;;;;;;;2.40;1.00;;;;;;;28.40;27.63;100106.44;1693186;84;21180;-81
2022/07/30 14:36:43;;;;;;;4.10;1.50;;;;;;;28.31;27.87;100113.00;1693256;84;21220;-81